Terminal Aerodrome Forecast
Issued by NWS

Home | Current Version | Previous Version | Text Only | Print | Product List | Glossary On
Versions: 1 2 3 4 5 6 7 8 9 10 11 12 13 14 15 16 17 18 19 20 21
000
FTUS43 KDVN 191726 RRA
TAFCID
TAF
KCID 191726Z 1917/2018 25006KT P6SM FEW040 FEW200
     FM200200 02007KT P6SM VCTS BKN035CB BKN110
     FM200400 03006KT 6SM SHRA VCTS BKN045CB OVC100
     FM200800 04010KT P6SM OVC010=

USA.gov is the U.S. government's official web portal to all federal, state and local government web resources and services.